Seneca, Nebraska
Current Conditions -  °F | °C
As of 7:35 AM on Friday 31 Oct 2014 (Local Time) from KTIF Reporting Station
Overcast Overcast  
Wind Chill: 25°   Ceiling: 1100
Heat Index: 30°   Visibility: 10mi
Dew Point: 26°   Wind: 5mph
Humidity: 85%   Direction: 80°E
Pressure: 30.51"   Gusts: NA
Location:  42.04°N, 100.83°W
Report Text: KTIF 311235Z AUTO 08004KT 10SM OVC011 M01/M03 A3051 RMK AO2 T10101032
Loading
Personal Weather Stations






























Interactive Weather Map
Tropical Storm Tracking
New forecast layout! Learn more

10-Day Weather Forecast

Advertisements
Track Severe Weather on mobile